createdAt,value
2023-01-28T00:00:12.352Z,9.40
2023-01-28T00:02:40.978Z,10.03
2023-01-28T00:05:12.785Z,9.70
2023-01-28T00:07:41.392Z,8.90
2023-01-28T00:10:10.829Z,9.60
2023-01-28T00:12:39.348Z,9.67
2023-01-28T00:15:08.872Z,9.03
2023-01-28T00:17:37.996Z,9.17
2023-01-28T00:20:07.284Z,9.30
2023-01-28T00:22:37.284Z,8.97
2023-01-28T00:25:06.317Z,9.23
2023-01-28T00:27:34.839Z,8.90
2023-01-28T00:30:03.334Z,9.00
2023-01-28T00:32:31.898Z,8.47
2023-01-28T00:35:00.396Z,9.03
2023-01-28T00:37:28.872Z,8.67
2023-01-28T00:39:58.747Z,8.30
2023-01-28T00:42:27.326Z,8.70
2023-01-28T00:44:55.896Z,9.03
2023-01-28T00:47:24.455Z,9.40
2023-01-28T00:49:53.431Z,8.17
2023-01-28T00:52:21.939Z,8.53
2023-01-28T00:54:50.472Z,8.50
2023-01-28T00:57:20.368Z,8.70
2023-01-28T00:59:48.920Z,7.90
2023-01-28T01:02:17.681Z,8.37
2023-01-28T01:04:55.071Z,8.30
2023-01-28T01:07:32.188Z,7.67
2023-01-28T01:10:01.281Z,8.33
2023-01-28T01:12:31.591Z,10.00
2023-01-28T01:15:00.143Z,10.07
2023-01-28T01:17:31.661Z,11.57
2023-01-28T01:20:00.149Z,11.63
2023-01-28T01:22:28.702Z,12.00
2023-01-28T01:24:57.362Z,10.77
2023-01-28T01:27:25.913Z,10.40
2023-01-28T01:29:55.822Z,11.17
2023-01-28T01:32:24.484Z,10.93
2023-01-28T01:34:53.018Z,11.23
2023-01-28T01:37:21.509Z,9.77
2023-01-28T01:39:50.173Z,9.53
2023-01-28T01:42:18.742Z,8.10
2023-01-28T01:45:05.721Z,8.67
2023-01-28T01:47:39.933Z,8.00
2023-01-28T01:50:14.487Z,6.93
2023-01-28T01:52:44.307Z,6.73
2023-01-28T01:55:16.354Z,6.77
2023-01-28T01:57:45.835Z,6.93
2023-01-28T02:00:16.492Z,6.47
2023-01-28T02:02:46.908Z,6.53
2023-01-28T02:05:18.620Z,5.80
2023-01-28T02:07:48.758Z,6.40
2023-01-28T02:10:17.980Z,5.30
2023-01-28T02:12:50.795Z,6.00
2023-01-28T02:15:22.086Z,5.30
2023-01-28T02:17:51.692Z,5.47
2023-01-28T02:20:23.239Z,5.30
2023-01-28T02:23:26.112Z,4.93
2023-01-28T02:26:16.418Z,5.30
2023-01-28T02:28:51.049Z,5.67
2023-01-28T02:31:22.769Z,5.50
2023-01-28T02:33:55.787Z,5.13
2023-01-28T02:36:31.725Z,5.50
2023-01-28T02:39:03.125Z,4.57
2023-01-28T02:41:34.016Z,5.23
2023-01-28T02:44:04.913Z,5.13
2023-01-28T02:46:55.592Z,5.20
2023-01-28T02:49:28.034Z,5.43
2023-01-28T02:52:44.047Z,5.20
2023-01-28T02:55:18.604Z,5.87
2023-01-28T02:57:57.029Z,6.10
2023-01-28T03:00:29.397Z,6.10
2023-01-28T03:03:02.266Z,7.10
2023-01-28T03:05:34.708Z,8.00
2023-01-28T03:08:23.971Z,8.27
2023-01-28T03:11:10.749Z,8.57
2023-01-28T03:13:58.069Z,8.60
2023-01-28T03:16:45.648Z,7.87
2023-01-28T03:19:32.526Z,8.30
2023-01-28T03:22:18.751Z,7.13
2023-01-28T03:25:07.967Z,6.63
2023-01-28T03:27:59.028Z,6.80
2023-01-28T03:30:48.174Z,6.33
2023-01-28T03:33:35.922Z,5.70
2023-01-28T03:36:22.252Z,5.30
2023-01-28T03:38:50.763Z,5.33
2023-01-28T03:41:23.208Z,4.50
2023-01-28T03:43:53.495Z,4.40
2023-01-28T03:46:22.137Z,4.40
2023-01-28T03:48:52.040Z,4.30
2023-01-28T03:51:20.611Z,4.40
2023-01-28T03:53:49.220Z,4.67
2023-01-28T03:56:18.512Z,4.60
2023-01-28T03:58:56.582Z,4.60
2023-01-28T04:01:25.688Z,4.20
2023-01-28T04:03:55.590Z,4.30
2023-01-28T04:06:24.221Z,4.20
2023-01-28T04:08:54.560Z,4.27
2023-01-28T04:11:26.118Z,4.03
2023-01-28T04:13:54.640Z,4.17
2023-01-28T04:16:23.196Z,4.60
2023-01-28T04:18:51.738Z,4.60
2023-01-28T04:21:21.764Z,4.50
2023-01-28T04:23:50.233Z,4.50
2023-01-28T04:26:18.893Z,4.80
2023-01-28T04:28:47.448Z,5.00
2023-01-28T04:31:15.992Z,5.23
2023-01-28T04:33:44.531Z,5.13
2023-01-28T04:36:13.075Z,5.30
2023-01-28T04:38:43.001Z,5.80
2023-01-28T04:41:12.217Z,5.67
2023-01-28T04:43:40.748Z,6.63
2023-01-28T04:46:09.304Z,7.83
2023-01-28T04:48:38.406Z,6.80
2023-01-28T04:51:07.805Z,9.73
2023-01-28T04:53:36.507Z,9.37
2023-01-28T04:56:06.558Z,6.87
2023-01-28T04:58:35.129Z,6.80
2023-01-28T05:01:03.732Z,6.30
2023-01-28T05:03:33.231Z,5.73
2023-01-28T05:06:04.539Z,5.10
2023-01-28T05:08:33.053Z,4.53
2023-01-28T05:11:01.615Z,4.73
2023-01-28T05:13:31.644Z,5.43
2023-01-28T05:16:00.198Z,7.27
2023-01-28T05:18:28.799Z,15.23
2023-01-28T05:20:57.290Z,17.93
2023-01-28T05:23:25.911Z,15.13
2023-01-28T05:25:54.527Z,11.47
2023-01-28T05:28:23.121Z,9.63
2023-01-28T05:30:53.055Z,7.83
2023-01-28T05:33:21.593Z,6.13
2023-01-28T05:35:50.695Z,5.63
2023-01-28T05:38:19.257Z,5.57
2023-01-28T05:40:48.905Z,6.47
2023-01-28T05:43:17.776Z,6.00
2023-01-28T05:45:47.618Z,5.40
2023-01-28T05:48:17.616Z,5.30
2023-01-28T05:50:48.174Z,5.77
2023-01-28T05:53:16.786Z,6.50
2023-01-28T05:55:47.220Z,5.73
2023-01-28T05:58:15.888Z,6.20
2023-01-28T06:00:44.508Z,5.67
2023-01-28T06:03:13.343Z,6.13
2023-01-28T06:05:43.290Z,6.43
2023-01-28T06:08:11.871Z,7.90
2023-01-28T06:10:40.412Z,6.97
2023-01-28T06:13:09.005Z,6.83
2023-01-28T06:15:37.545Z,6.60
2023-01-28T06:18:06.120Z,6.70
2023-01-28T06:20:34.708Z,6.83
2023-01-28T06:23:04.648Z,7.30
2023-01-28T06:25:33.348Z,10.13
2023-01-28T06:28:01.936Z,9.47
2023-01-28T06:30:30.497Z,8.00
2023-01-28T06:32:59.081Z,15.40
2023-01-28T06:35:27.677Z,16.40
2023-01-28T06:37:56.261Z,12.17
2023-01-28T06:40:27.065Z,10.37
2023-01-28T06:43:14.092Z,10.40
2023-01-28T06:45:42.783Z,11.63
2023-01-28T06:48:11.363Z,15.18
2023-01-28T06:50:39.863Z,16.83
2023-01-28T06:53:08.470Z,17.23
2023-01-28T06:55:38.322Z,18.90
2023-01-28T06:58:06.871Z,18.47
2023-01-28T07:00:35.388Z,15.70
2023-01-28T07:03:03.984Z,14.80
2023-01-28T07:05:32.862Z,13.47
2023-01-28T07:08:02.324Z,12.30
2023-01-28T07:10:31.334Z,14.40
2023-01-28T07:13:01.235Z,14.30
2023-01-28T07:15:29.751Z,13.77
2023-01-28T07:17:59.581Z,13.83
2023-01-28T07:20:28.402Z,12.80
2023-01-28T07:22:56.953Z,12.93
2023-01-28T07:25:25.455Z,13.07
2023-01-28T07:27:54.878Z,13.33
2023-01-28T07:30:25.232Z,12.47
2023-01-28T07:32:57.096Z,12.20
2023-01-28T07:35:26.129Z,13.70
2023-01-28T07:37:55.087Z,14.33
2023-01-28T07:40:23.943Z,16.07
2023-01-28T07:42:52.661Z,20.03
2023-01-28T07:45:21.165Z,17.47
2023-01-28T07:47:56.980Z,15.57
2023-01-28T07:50:26.104Z,15.07
2023-01-28T07:52:54.638Z,15.17
2023-01-28T07:55:23.288Z,14.27
2023-01-28T07:57:53.315Z,14.80
2023-01-28T08:00:22.536Z,15.33
2023-01-28T08:02:51.522Z,15.13
2023-01-28T08:05:22.846Z,14.60
2023-01-28T08:07:51.515Z,16.40
2023-01-28T08:10:20.963Z,48.43
2023-01-28T08:12:53.838Z,28.90
2023-01-28T08:15:22.569Z,20.50
2023-01-28T08:17:51.255Z,19.90
2023-01-28T08:20:21.231Z,16.23
2023-01-28T08:22:49.798Z,20.17
2023-01-28T08:25:18.627Z,15.53
2023-01-28T08:27:47.226Z,15.27
2023-01-28T08:30:16.374Z,15.30
2023-01-28T08:32:45.122Z,16.20
2023-01-28T08:35:13.631Z,14.97
2023-01-28T08:37:43.617Z,14.63
2023-01-28T08:40:13.774Z,17.90
2023-01-28T08:42:48.398Z,19.90
2023-01-28T08:45:17.076Z,45.60
2023-01-28T08:47:52.086Z,31.33
2023-01-28T08:50:21.579Z,24.93
2023-01-28T08:52:56.633Z,18.23
2023-01-28T08:55:25.319Z,28.77
2023-01-28T08:57:54.015Z,16.13
2023-01-28T09:00:23.176Z,16.03
2023-01-28T09:02:53.186Z,14.93
2023-01-28T09:05:22.705Z,15.83
2023-01-28T09:07:52.567Z,15.67
2023-01-28T09:10:21.996Z,15.60
2023-01-28T09:12:50.920Z,17.53
2023-01-28T09:15:19.564Z,18.87
2023-01-28T09:17:48.087Z,20.60
2023-01-28T09:20:20.534Z,24.20
2023-01-28T09:22:49.059Z,18.93
2023-01-28T09:25:18.976Z,15.77
2023-01-28T09:27:47.558Z,14.63
2023-01-28T09:30:17.105Z,15.17
2023-01-28T09:32:46.061Z,18.17
2023-01-28T09:35:15.344Z,14.97
2023-01-28T09:37:43.988Z,13.80
2023-01-28T09:40:17.014Z,13.80
2023-01-28T09:42:54.979Z,18.57
2023-01-28T09:45:26.827Z,17.00
2023-01-28T09:47:57.759Z,17.87
2023-01-28T09:50:32.428Z,17.17
2023-01-28T09:53:04.773Z,25.73
2023-01-28T09:55:35.951Z,27.80
2023-01-28T09:58:07.528Z,26.37
2023-01-28T10:00:40.381Z,18.53
2023-01-28T10:03:30.040Z,23.20
2023-01-28T10:06:02.931Z,22.53
2023-01-28T10:08:47.865Z,20.37
2023-01-28T10:11:21.834Z,19.47
2023-01-28T10:13:57.047Z,19.80
2023-01-28T10:16:29.672Z,20.00
2023-01-28T10:19:02.419Z,14.47
2023-01-28T10:21:35.740Z,14.43
2023-01-28T10:24:08.202Z,14.00
2023-01-28T10:26:38.334Z,15.23
2023-01-28T10:29:14.117Z,14.73
2023-01-28T10:31:48.908Z,15.43
2023-01-28T10:34:19.977Z,14.93
2023-01-28T10:36:49.190Z,14.23
2023-01-28T10:39:19.306Z,16.00
2023-01-28T10:41:57.418Z,16.43
2023-01-28T10:44:33.602Z,16.03
2023-01-28T10:47:05.624Z,15.00
2023-01-28T10:49:41.572Z,16.33
2023-01-28T10:52:14.240Z,15.53
2023-01-28T10:54:42.835Z,16.50
2023-01-28T10:57:14.230Z,16.80
2023-01-28T10:59:44.463Z,22.93
2023-01-28T11:02:28.380Z,16.10
2023-01-28T11:05:08.498Z,13.87
2023-01-28T11:07:37.071Z,15.23
2023-01-28T11:10:27.661Z,14.17
2023-01-28T11:13:00.607Z,15.43
2023-01-28T11:15:30.680Z,14.90
2023-01-28T11:18:02.255Z,15.67
2023-01-28T11:20:32.786Z,15.57
2023-01-28T11:23:01.365Z,15.73
2023-01-28T11:25:32.352Z,18.37
2023-01-28T11:28:02.063Z,25.80
2023-01-28T11:30:34.022Z,20.40
2023-01-28T11:33:08.952Z,16.27
2023-01-28T11:35:37.461Z,16.23
2023-01-28T11:38:18.502Z,14.67
2023-01-28T11:40:52.320Z,22.47
2023-01-28T11:43:22.858Z,24.70
2023-01-28T11:46:02.658Z,17.00
2023-01-28T11:48:37.060Z,15.37
2023-01-28T11:51:09.236Z,15.40
2023-01-28T11:53:55.339Z,15.50
2023-01-28T11:56:43.365Z,15.20
2023-01-28T11:59:26.919Z,15.90
2023-01-28T12:02:01.281Z,15.27
2023-01-28T12:04:43.293Z,15.63
2023-01-28T12:07:27.517Z,15.83
2023-01-28T12:09:58.497Z,14.43
2023-01-28T12:12:44.816Z,14.80
2023-01-28T12:15:53.019Z,15.47
2023-01-28T12:18:39.232Z,15.07
2023-01-28T12:21:10.693Z,14.47
2023-01-28T12:23:55.064Z,15.20
2023-01-28T12:26:30.071Z,15.07
2023-01-28T12:29:08.209Z,14.80
2023-01-28T12:31:58.406Z,15.30
2023-01-28T12:34:42.315Z,15.03
2023-01-28T12:37:15.730Z,16.50
2023-01-28T12:39:53.392Z,15.37
2023-01-28T12:42:32.457Z,15.20
2023-01-28T12:45:06.088Z,16.13
2023-01-28T12:47:37.336Z,16.27
2023-01-28T12:50:14.349Z,16.80
2023-01-28T12:52:47.152Z,16.00
2023-01-28T12:55:18.784Z,15.47
2023-01-28T12:57:48.767Z,15.30
2023-01-28T13:00:26.490Z,15.23
2023-01-28T13:03:02.889Z,17.20
2023-01-28T13:05:38.555Z,15.50
2023-01-28T13:08:13.187Z,15.43
2023-01-28T13:10:44.213Z,14.37
2023-01-28T13:13:18.272Z,15.80
2023-01-28T13:15:47.543Z,17.83
2023-01-28T13:18:36.616Z,16.57
2023-01-28T13:21:07.160Z,16.43
2023-01-28T13:23:40.460Z,16.37
2023-01-28T13:26:28.412Z,16.00
2023-01-28T13:29:09.904Z,15.70
2023-01-28T13:31:40.340Z,16.10
2023-01-28T13:34:09.638Z,15.93
2023-01-28T13:36:45.373Z,15.53
2023-01-28T13:39:19.621Z,16.43
2023-01-28T13:41:49.908Z,15.77
2023-01-28T13:44:29.424Z,16.83
2023-01-28T13:47:00.454Z,16.50
2023-01-28T13:49:34.412Z,15.73
2023-01-28T13:52:10.131Z,20.63
2023-01-28T13:54:42.232Z,19.27
2023-01-28T13:57:58.727Z,15.37
2023-01-28T14:00:32.741Z,15.43
2023-01-28T14:03:45.772Z,15.13
2023-01-28T14:06:46.222Z,16.47
2023-01-28T14:09:34.469Z,15.33
2023-01-28T14:12:21.521Z,15.50
2023-01-28T14:15:17.406Z,16.13
2023-01-28T14:17:47.864Z,15.63
2023-01-28T14:20:20.283Z,15.63
2023-01-28T14:22:49.191Z,15.13
2023-01-28T14:25:36.583Z,16.50
2023-01-28T14:28:07.135Z,16.13
2023-01-28T14:30:51.855Z,15.70
2023-01-28T14:33:20.585Z,16.60
2023-01-28T14:35:50.087Z,17.00
2023-01-28T14:38:21.008Z,17.70
2023-01-28T14:40:52.955Z,17.20
2023-01-28T14:43:23.541Z,17.07
2023-01-28T14:46:04.224Z,16.33
2023-01-28T14:48:38.271Z,16.43
2023-01-28T14:51:34.730Z,16.63
2023-01-28T14:54:29.808Z,16.50
2023-01-28T14:57:11.354Z,16.87
2023-01-28T14:59:43.466Z,19.07
2023-01-28T15:02:18.630Z,18.00
2023-01-28T15:04:47.285Z,17.50
2023-01-28T15:07:21.025Z,19.13
2023-01-28T15:09:49.964Z,17.93
2023-01-28T15:12:20.064Z,16.20
2023-01-28T15:14:49.100Z,16.10
2023-01-28T15:17:25.671Z,15.70
2023-01-28T15:19:55.256Z,16.77
2023-01-28T15:22:26.058Z,16.53
2023-01-28T15:24:54.826Z,16.77
2023-01-28T15:27:29.096Z,17.60
2023-01-28T15:29:59.277Z,16.77
2023-01-28T15:32:29.752Z,16.53
2023-01-28T15:35:01.113Z,16.50
2023-01-28T15:37:29.720Z,15.90
2023-01-28T15:40:06.743Z,15.33
2023-01-28T15:42:38.546Z,15.13
2023-01-28T15:45:17.504Z,21.30
2023-01-28T15:47:46.605Z,24.60
2023-01-28T15:50:20.578Z,23.03
2023-01-28T15:52:49.186Z,24.70
2023-01-28T15:55:39.089Z,24.90
2023-01-28T15:58:30.828Z,25.90
2023-01-28T16:01:15.274Z,25.27
2023-01-28T16:03:45.386Z,23.97
2023-01-28T16:06:17.340Z,22.87
2023-01-28T16:08:53.290Z,22.70
2023-01-28T16:11:30.399Z,26.83
2023-01-28T16:14:01.820Z,22.43
2023-01-28T16:16:32.578Z,20.57
2023-01-28T16:19:01.637Z,21.13
2023-01-28T16:21:32.456Z,20.00
2023-01-28T16:24:02.968Z,19.73
2023-01-28T16:26:33.228Z,19.27
2023-01-28T16:29:14.711Z,19.23
2023-01-28T16:31:43.350Z,31.03
2023-01-28T16:34:12.648Z,50.33
2023-01-28T16:36:41.187Z,25.70
2023-01-28T16:39:09.721Z,23.58
2023-01-28T16:41:41.187Z,21.17
2023-01-28T16:44:13.865Z,19.87
2023-01-28T16:46:42.931Z,19.53
2023-01-28T16:49:12.077Z,19.23
2023-01-28T16:51:42.735Z,19.73
2023-01-28T16:54:14.952Z,20.87
2023-01-28T16:56:46.029Z,20.97
2023-01-28T16:59:17.369Z,20.80
2023-01-28T17:01:46.475Z,21.27
2023-01-28T17:04:15.349Z,20.43
2023-01-28T17:06:45.232Z,20.60
2023-01-28T17:09:14.691Z,19.97
2023-01-28T17:11:43.551Z,20.00
2023-01-28T17:14:12.595Z,19.07
2023-01-28T17:16:42.601Z,18.20
2023-01-28T17:19:11.156Z,18.07
2023-01-28T17:21:39.773Z,17.50
2023-01-28T17:24:09.196Z,17.60
2023-01-28T17:26:38.207Z,16.27
2023-01-28T17:29:07.029Z,16.40
2023-01-28T17:31:36.225Z,15.93
2023-01-28T17:34:08.159Z,15.60
2023-01-28T17:36:36.795Z,16.00
2023-01-28T17:39:06.065Z,17.67
2023-01-28T17:41:34.797Z,23.23
2023-01-28T17:44:04.612Z,17.70
2023-01-28T17:46:33.469Z,15.80
2023-01-28T17:49:03.117Z,35.50
2023-01-28T17:51:33.086Z,28.30
2023-01-28T17:54:01.784Z,20.00
2023-01-28T17:56:31.215Z,16.20
2023-01-28T17:59:03.501Z,15.37
2023-01-28T18:01:32.514Z,15.60
2023-01-28T18:04:01.763Z,16.20
2023-01-28T18:06:35.838Z,15.37
2023-01-28T18:09:05.457Z,15.47
2023-01-28T18:11:34.260Z,15.27
2023-01-28T18:14:02.937Z,14.83
2023-01-28T18:16:31.494Z,16.30
2023-01-28T18:19:00.361Z,15.90
2023-01-28T18:21:51.328Z,16.40
2023-01-28T18:24:23.825Z,15.27
2023-01-28T18:26:52.619Z,17.57
2023-01-28T18:29:23.957Z,19.10
2023-01-28T18:31:54.308Z,25.50
2023-01-28T18:34:24.056Z,20.80
2023-01-28T18:36:54.272Z,18.87
2023-01-28T18:39:23.333Z,19.33
2023-01-28T18:41:54.932Z,18.20
2023-01-28T18:44:24.476Z,17.10
2023-01-28T18:46:53.661Z,15.97
2023-01-28T18:49:22.304Z,27.70
2023-01-28T18:51:50.850Z,44.43
2023-01-28T18:54:21.026Z,46.57
2023-01-28T18:56:49.934Z,28.13
2023-01-28T18:59:18.501Z,20.00
2023-01-28T19:01:48.044Z,20.73
2023-01-28T19:04:16.793Z,17.07
2023-01-28T19:06:45.681Z,16.07
2023-01-28T19:09:15.760Z,16.80
2023-01-28T19:11:46.139Z,17.13
2023-01-28T19:14:15.862Z,15.87
2023-01-28T19:16:44.680Z,16.70
2023-01-28T19:19:13.906Z,18.00
2023-01-28T19:21:42.566Z,16.60
2023-01-28T19:24:14.230Z,17.43
2023-01-28T19:26:45.538Z,19.80
2023-01-28T19:29:15.904Z,28.90
2023-01-28T19:31:48.776Z,21.07
2023-01-28T19:34:17.694Z,17.33
2023-01-28T19:36:46.833Z,16.17
2023-01-28T19:39:15.733Z,15.67
2023-01-28T19:41:45.990Z,15.43
2023-01-28T19:44:14.543Z,16.27
2023-01-28T19:46:43.178Z,15.50
2023-01-28T19:49:12.705Z,16.87
2023-01-28T19:51:41.252Z,15.40
2023-01-28T19:54:09.934Z,15.10
2023-01-28T19:56:38.691Z,16.63
2023-01-28T19:59:08.784Z,15.63
2023-01-28T20:01:37.447Z,16.33
2023-01-28T20:04:06.152Z,16.73
2023-01-28T20:06:36.068Z,15.30
2023-01-28T20:09:07.706Z,15.97
2023-01-28T20:11:36.495Z,15.90
2023-01-28T20:14:04.996Z,15.37
2023-01-28T20:16:36.462Z,15.63
2023-01-28T20:19:06.886Z,16.90
2023-01-28T20:21:37.149Z,17.10
2023-01-28T20:24:06.843Z,18.37
2023-01-28T20:26:36.629Z,18.17
2023-01-28T20:29:07.728Z,18.23
2023-01-28T20:31:38.764Z,20.63
2023-01-28T20:34:07.502Z,27.80
2023-01-28T20:36:36.064Z,36.57
2023-01-28T20:39:04.755Z,24.43
2023-01-28T20:41:33.484Z,21.73
2023-01-28T20:44:02.056Z,20.63
2023-01-28T20:46:31.996Z,20.30
2023-01-28T20:49:06.242Z,21.27
2023-01-28T20:51:36.034Z,18.33
2023-01-28T20:54:05.218Z,18.00
2023-01-28T20:56:34.001Z,16.50
2023-01-28T20:59:04.421Z,16.40
2023-01-28T21:01:34.860Z,16.50
2023-01-28T21:04:05.791Z,16.00
2023-01-28T21:06:34.554Z,15.17
2023-01-28T21:09:03.445Z,16.13
2023-01-28T21:11:32.422Z,18.40
2023-01-28T21:14:01.035Z,22.97
2023-01-28T21:16:29.879Z,19.30
2023-01-28T21:18:58.549Z,17.67
2023-01-28T21:21:29.843Z,17.60
2023-01-28T21:24:00.679Z,17.07
2023-01-28T21:26:29.437Z,17.60
2023-01-28T21:28:57.975Z,17.43
2023-01-28T21:31:27.629Z,17.63
2023-01-28T21:33:57.030Z,15.20
2023-01-28T21:36:26.857Z,17.70
2023-01-28T21:38:58.147Z,16.50
2023-01-28T21:41:27.028Z,17.03
2023-01-28T21:43:57.748Z,17.30
2023-01-28T21:46:27.970Z,17.80
2023-01-28T21:48:57.160Z,17.67
2023-01-28T21:51:39.470Z,17.10
2023-01-28T21:54:13.018Z,17.53
2023-01-28T21:56:42.867Z,18.03
2023-01-28T21:59:30.307Z,19.98
2023-01-28T22:02:00.017Z,18.00
2023-01-28T22:04:30.547Z,17.43
2023-01-28T22:06:59.363Z,17.63
2023-01-28T22:09:29.941Z,18.30
2023-01-28T22:11:58.646Z,17.93
2023-01-28T22:14:27.689Z,17.50
2023-01-28T22:16:56.411Z,18.37
2023-01-28T22:19:24.969Z,18.10
2023-01-28T22:21:53.571Z,19.30
2023-01-28T22:24:24.473Z,18.43
2023-01-28T22:26:55.401Z,17.83
2023-01-28T22:29:24.661Z,17.57
2023-01-28T22:31:54.802Z,18.53
2023-01-28T22:34:23.548Z,16.63
2023-01-28T22:36:52.671Z,18.80
2023-01-28T22:39:21.361Z,17.83
2023-01-28T22:41:49.831Z,17.83
2023-01-28T22:44:20.922Z,17.50
2023-01-28T22:46:49.647Z,18.23
2023-01-28T22:49:18.284Z,19.13
2023-01-28T22:51:46.815Z,19.77
2023-01-28T22:54:15.394Z,16.90
2023-01-28T22:56:43.941Z,12.93
2023-01-28T22:59:13.004Z,18.37
2023-01-28T23:01:42.959Z,19.83
2023-01-28T23:04:12.242Z,20.40
2023-01-28T23:06:40.735Z,17.80
2023-01-28T23:09:09.282Z,17.80
2023-01-28T23:11:37.794Z,16.33
2023-01-28T23:14:23.587Z,17.23
2023-01-28T23:17:11.055Z,18.37
2023-01-28T23:19:56.966Z,18.63
2023-01-28T23:22:46.132Z,19.83
2023-01-28T23:25:14.873Z,16.97
2023-01-28T23:27:43.840Z,16.47
2023-01-28T23:30:14.519Z,15.00
2023-01-28T23:32:47.933Z,15.00
2023-01-28T23:35:17.088Z,15.17
2023-01-28T23:37:45.586Z,15.10
2023-01-28T23:40:14.916Z,14.20
2023-01-28T23:42:44.774Z,14.27
2023-01-28T23:45:13.285Z,14.60
2023-01-28T23:47:41.822Z,15.07
2023-01-28T23:50:12.577Z,15.47
2023-01-28T23:52:41.121Z,16.17
2023-01-28T23:55:10.215Z,16.57
2023-01-28T23:57:38.763Z,17.23
